Logan - 24 Hour Table
Date & TimeSolar
Radiation
(W/m²)
Wind
Speed
(mph)
Wind
Direction
(degrees)
Air
Temperature
(°F)
Relative
Humidity
(%)
Precipitation
(inches)
Barometric
Pressure
(inHg)
2018/08/13 23:00 0 3.8 278 68.4 58 0.00 29.99
2018/08/13 22:00 0 3.2 186 71.6 66 0.00 30.00
2018/08/13 21:00 0 1.8 204 74.0 49 0.00 30.00
2018/08/13 20:00 5 2.9 358 76.5 41 0.00 29.99
2018/08/13 19:00 105 4.9 292 82.4 42 0.00 29.99
2018/08/13 18:00 280 7.8 22 87.1 22 0.00 29.98
2018/08/13 17:00 437 15.9 2 85.7 21 0.00 29.99
2018/08/13 16:00 643 3.9 253 92.5 19 0.00 29.98
2018/08/13 15:00 764 3.2 284 92.7 21 0.00 29.99
2018/08/13 14:00 834 3.0 312 90.5 17 0.00 30.00
2018/08/13 13:00 807 3.3 357 86.1 20 0.00 30.02
2018/08/13 12:00 766 2.4 12 84.3 31 0.00 30.04
2018/08/13 11:00 643 2.0 160 78.1 29 0.00 30.06
2018/08/13 10:00 550 3.1 256 71.5 34 0.00 30.06
2018/08/13 09:00 96 2.9 337 66.5 64 0.00 30.09
2018/08/13 08:00 103 4.2 67 66.6 58 0.00 30.09
2018/08/13 07:00 41 6.0 322 62.6 63 0.00 30.08
2018/08/13 06:00 3 4.0 29 61.8 51 0.00 30.06
2018/08/13 05:00 0 2.5 120 65.7 62 0.00 30.05
2018/08/13 04:00 0 2.9 200 64.1 50 0.00 30.05
2018/08/13 03:00 0 1.7 31 62.3 61 0.00 30.04
2018/08/13 02:00 0 1.9 61 64.6 63 0.00 30.04
2018/08/13 01:00 0 1.7 182 66.7 62 0.00 30.04
2018/08/13 00:00 0 2.7 177 69.4 47 0.00 30.04